createdAt,value
2023-06-12T00:01:30.900Z,2.65
2023-06-12T00:03:59.444Z,2.60
2023-06-12T00:06:29.665Z,2.53
2023-06-12T00:08:58.192Z,2.33
2023-06-12T00:11:25.311Z,3.03
2023-06-12T00:13:52.436Z,2.90
2023-06-12T00:16:19.614Z,2.72
2023-06-12T00:18:48.214Z,2.72
2023-06-12T00:21:15.416Z,3.00
2023-06-12T00:23:42.973Z,2.63
2023-06-12T00:26:13.117Z,3.00
2023-06-12T00:28:44.437Z,3.38
2023-06-12T00:31:11.520Z,3.03
2023-06-12T00:33:39.167Z,2.53
2023-06-12T00:36:06.593Z,2.92
2023-06-12T00:38:36.201Z,2.83
2023-06-12T00:41:04.066Z,2.70
2023-06-12T00:43:31.267Z,2.95
2023-06-12T00:45:58.855Z,2.70
2023-06-12T00:48:26.048Z,2.70
2023-06-12T00:50:57.581Z,2.80
2023-06-12T00:53:25.254Z,2.83
2023-06-12T00:55:52.400Z,2.80
2023-06-12T00:58:19.666Z,2.60
2023-06-12T01:00:49.648Z,2.90
2023-06-12T01:03:18.636Z,3.00
2023-06-12T01:05:47.604Z,2.85
2023-06-12T01:08:35.683Z,3.00
2023-06-12T01:11:08.967Z,3.05
2023-06-12T01:13:36.922Z,3.13
2023-06-12T01:16:04.733Z,2.92
2023-06-12T01:18:34.051Z,2.88
2023-06-12T01:21:09.204Z,3.20
2023-06-12T01:23:57.020Z,3.05
2023-06-12T01:26:48.310Z,3.20
2023-06-12T01:29:29.804Z,2.90
2023-06-12T01:32:06.972Z,2.80
2023-06-12T01:34:55.069Z,2.80
2023-06-12T01:37:35.188Z,3.40
2023-06-12T01:40:10.066Z,3.73
2023-06-12T01:42:38.253Z,2.85
2023-06-12T01:45:06.401Z,2.75
2023-06-12T01:47:33.750Z,3.38
2023-06-12T01:50:01.317Z,2.83
2023-06-12T01:52:28.764Z,3.30
2023-06-12T01:54:59.532Z,3.17
2023-06-12T01:57:29.164Z,3.25
2023-06-12T01:59:56.922Z,3.58
2023-06-12T02:02:24.795Z,3.25
2023-06-12T02:04:52.086Z,2.95
2023-06-12T02:07:19.236Z,3.10
2023-06-12T02:09:47.966Z,2.80
2023-06-12T02:12:16.596Z,2.97
2023-06-12T02:14:44.125Z,3.00
2023-06-12T02:17:15.079Z,3.65
2023-06-12T02:19:42.394Z,3.20
2023-06-12T02:22:09.525Z,3.33
2023-06-12T02:24:37.073Z,3.33
2023-06-12T02:27:05.395Z,3.30
2023-06-12T02:29:32.791Z,3.10
2023-06-12T02:32:01.180Z,3.03
2023-06-12T02:34:28.762Z,3.13
2023-06-12T02:36:56.730Z,3.80
2023-06-12T02:39:28.424Z,3.00
2023-06-12T02:41:56.518Z,3.00
2023-06-12T02:44:23.731Z,3.20
2023-06-12T02:46:59.973Z,3.35
2023-06-12T02:49:36.888Z,3.00
2023-06-12T02:52:06.109Z,3.00
2023-06-12T02:54:34.069Z,3.17
2023-06-12T02:57:02.812Z,3.60
2023-06-12T02:59:30.115Z,3.40
2023-06-12T03:02:01.804Z,3.53
2023-06-12T03:04:49.150Z,3.53
2023-06-12T03:07:19.290Z,3.17
2023-06-12T03:09:46.540Z,3.50
2023-06-12T03:12:14.989Z,3.70
2023-06-12T03:14:43.779Z,2.97
2023-06-12T03:17:11.402Z,3.47
2023-06-12T03:19:39.084Z,3.30
2023-06-12T03:22:06.259Z,3.38
2023-06-12T03:24:33.370Z,3.20
2023-06-12T03:27:00.724Z,3.20
2023-06-12T03:29:30.403Z,3.50
2023-06-12T03:31:58.075Z,3.60
2023-06-12T03:34:28.443Z,3.28
2023-06-12T03:36:55.799Z,3.42
2023-06-12T03:39:26.952Z,3.65
2023-06-12T03:41:58.647Z,3.67
2023-06-12T03:44:57.855Z,3.15
2023-06-12T03:47:26.992Z,3.60
2023-06-12T03:49:55.257Z,3.38
2023-06-12T03:52:22.718Z,4.22
2023-06-12T03:54:52.351Z,3.47
2023-06-12T03:57:21.564Z,3.60
2023-06-12T03:59:48.799Z,3.65
2023-06-12T04:02:16.043Z,3.35
2023-06-12T04:04:43.476Z,3.28
2023-06-12T04:07:12.435Z,3.40
2023-06-12T04:09:39.853Z,3.13
2023-06-12T04:12:07.675Z,3.47
2023-06-12T04:14:35.405Z,3.53
2023-06-12T04:17:02.892Z,3.58
2023-06-12T04:19:30.124Z,3.30
2023-06-12T04:21:57.402Z,3.40
2023-06-12T04:24:25.892Z,3.47
2023-06-12T04:26:55.518Z,3.10
2023-06-12T04:29:22.763Z,2.90
2023-06-12T04:31:51.394Z,3.20
2023-06-12T04:34:18.612Z,3.20
2023-06-12T04:36:46.836Z,3.40
2023-06-12T04:39:15.408Z,3.17
2023-06-12T04:41:43.615Z,3.47
2023-06-12T04:44:10.766Z,3.58
2023-06-12T04:46:41.622Z,3.15
2023-06-12T04:49:10.373Z,3.20
2023-06-12T04:54:10.332Z,3.50
2023-06-12T04:56:41.772Z,3.25
2023-06-12T04:59:10.124Z,3.40
2023-06-12T05:01:39.529Z,3.25
2023-06-12T05:04:08.466Z,3.78
2023-06-12T05:06:39.282Z,3.08
2023-06-12T05:09:10.123Z,2.95
2023-06-12T05:11:37.659Z,3.42
2023-06-12T05:14:06.505Z,3.45
2023-06-12T05:16:33.920Z,3.15
2023-06-12T05:19:01.558Z,3.65
2023-06-12T05:21:29.495Z,3.30
2023-06-12T05:23:57.177Z,3.85
2023-06-12T05:26:24.710Z,4.07
2023-06-12T05:28:52.646Z,4.00
2023-06-12T05:31:19.944Z,3.50
2023-06-12T05:33:47.587Z,3.53
2023-06-12T05:36:16.600Z,3.33
2023-06-12T05:38:47.584Z,3.72
2023-06-12T05:41:16.889Z,3.10
2023-06-12T05:43:47.445Z,3.38
2023-06-12T05:46:14.895Z,3.30
2023-06-12T05:48:42.218Z,2.90
2023-06-12T05:51:09.540Z,3.42
2023-06-12T05:53:37.687Z,3.40
2023-06-12T05:56:06.812Z,3.30
2023-06-12T05:58:35.524Z,3.47
2023-06-12T06:01:04.001Z,3.35
2023-06-12T06:03:50.326Z,3.40
2023-06-12T06:06:18.271Z,3.65
2023-06-12T06:08:45.925Z,3.97
2023-06-12T06:11:13.918Z,3.22
2023-06-12T06:13:42.716Z,3.90
2023-06-12T06:16:12.261Z,3.75
2023-06-12T06:18:41.877Z,3.22
2023-06-12T06:21:09.328Z,3.40
2023-06-12T06:23:37.245Z,3.75
2023-06-12T06:26:05.352Z,3.20
2023-06-12T06:28:33.010Z,3.20
2023-06-12T06:31:01.127Z,3.35
2023-06-12T06:33:28.335Z,3.25
2023-06-12T06:35:56.442Z,3.42
2023-06-12T06:38:26.171Z,3.22
2023-06-12T06:40:54.046Z,2.65
2023-06-12T06:43:21.757Z,3.00
2023-06-12T06:45:53.973Z,2.85
2023-06-12T06:48:21.929Z,2.72
2023-06-12T06:50:49.004Z,2.90
2023-06-12T06:53:16.241Z,2.28
2023-06-12T06:55:45.119Z,2.38
2023-06-12T06:58:14.481Z,2.60
2023-06-12T07:00:42.161Z,2.28
2023-06-12T07:03:10.005Z,2.30
2023-06-12T07:05:38.681Z,2.35
2023-06-12T07:08:05.925Z,2.08
2023-06-12T07:10:36.160Z,2.28
2023-06-12T07:13:04.371Z,1.83
2023-06-12T07:15:43.843Z,2.53
2023-06-12T07:18:11.782Z,2.00
2023-06-12T07:20:38.949Z,2.08
2023-06-12T07:23:07.064Z,1.85
2023-06-12T07:25:36.287Z,2.00
2023-06-12T07:28:04.269Z,1.40
2023-06-12T07:30:32.110Z,1.60
2023-06-12T07:32:59.346Z,1.80
2023-06-12T07:35:26.663Z,1.60
2023-06-12T07:37:54.159Z,2.25
2023-06-12T07:40:21.724Z,1.90
2023-06-12T07:42:50.139Z,1.60
2023-06-12T07:45:19.132Z,1.33
2023-06-12T07:47:48.896Z,1.50
2023-06-12T07:50:16.978Z,1.60
2023-06-12T07:52:44.794Z,1.40
2023-06-12T07:55:12.186Z,1.40
2023-06-12T07:57:40.064Z,1.45
2023-06-12T08:00:08.918Z,1.60
2023-06-12T08:02:59.750Z,1.30
2023-06-12T08:05:36.033Z,1.92
2023-06-12T08:08:06.706Z,1.38
2023-06-12T08:10:35.603Z,1.35
2023-06-12T08:13:03.034Z,1.70
2023-06-12T08:15:30.698Z,1.50
2023-06-12T08:17:58.075Z,1.48
2023-06-12T08:20:25.311Z,1.63
2023-06-12T08:22:57.767Z,1.52
2023-06-12T08:25:27.168Z,1.30
2023-06-12T08:27:57.394Z,1.30
2023-06-12T08:30:25.371Z,1.50
2023-06-12T08:32:52.612Z,1.40
2023-06-12T08:35:21.599Z,1.60
2023-06-12T08:37:49.542Z,1.55
2023-06-12T08:40:17.294Z,1.38
2023-06-12T08:42:54.693Z,1.48
2023-06-12T08:45:24.935Z,1.50
2023-06-12T08:47:53.046Z,1.40
2023-06-12T08:50:21.375Z,1.38
2023-06-12T08:52:48.968Z,1.35
2023-06-12T08:55:17.321Z,1.30
2023-06-12T08:57:45.132Z,1.50
2023-06-12T09:00:16.805Z,1.42
2023-06-12T09:02:49.283Z,1.50
2023-06-12T09:05:21.345Z,1.40
2023-06-12T09:07:49.478Z,1.60
2023-06-12T09:10:16.688Z,1.65
2023-06-12T09:12:46.374Z,1.67
2023-06-12T09:15:18.616Z,1.50
2023-06-12T09:17:50.379Z,1.75
2023-06-12T09:20:40.780Z,1.38
2023-06-12T09:23:09.432Z,1.50
2023-06-12T09:25:47.212Z,1.60
2023-06-12T09:28:25.934Z,1.60
2023-06-12T09:30:55.356Z,1.70
2023-06-12T09:33:28.839Z,1.70
2023-06-12T09:35:56.234Z,1.60
2023-06-12T09:38:30.856Z,1.30
2023-06-12T09:40:59.353Z,1.30
2023-06-12T09:43:29.980Z,1.55
2023-06-12T09:46:00.793Z,1.70
2023-06-12T09:51:24.900Z,1.35
2023-06-12T09:53:57.102Z,1.50
2023-06-12T09:56:25.349Z,1.48
2023-06-12T09:58:54.732Z,1.40
2023-06-12T10:01:22.757Z,1.40
2023-06-12T10:03:54.601Z,1.60
2023-06-12T10:06:24.954Z,3.95
2023-06-12T10:08:54.675Z,1.48
2023-06-12T10:11:22.329Z,1.77
2023-06-12T10:13:49.393Z,1.38
2023-06-12T10:16:17.899Z,2.92
2023-06-12T10:18:45.299Z,1.50
2023-06-12T10:21:12.738Z,1.60
2023-06-12T10:23:40.783Z,1.20
2023-06-12T10:26:08.710Z,1.50
2023-06-12T10:28:37.228Z,1.90
2023-06-12T10:31:14.992Z,1.58
2023-06-12T10:34:08.159Z,1.38
2023-06-12T10:36:43.266Z,1.48
2023-06-12T10:39:21.134Z,1.60
2023-06-12T10:41:59.538Z,1.80
2023-06-12T10:44:38.312Z,1.30
2023-06-12T10:47:06.038Z,1.50
2023-06-12T10:50:03.242Z,1.38
2023-06-12T10:52:31.118Z,1.45
2023-06-12T10:55:14.019Z,1.50
2023-06-12T10:57:48.299Z,1.40
2023-06-12T11:00:18.271Z,1.80
2023-06-12T11:05:29.127Z,1.60
2023-06-12T11:07:58.711Z,1.63
2023-06-12T11:10:28.018Z,1.35
2023-06-12T11:12:55.639Z,1.30
2023-06-12T11:15:23.603Z,1.70
2023-06-12T11:17:52.000Z,1.40
2023-06-12T11:20:24.189Z,2.45
2023-06-12T11:23:02.162Z,1.50
2023-06-12T11:25:42.780Z,1.70
2023-06-12T11:28:10.700Z,1.75
2023-06-12T11:30:43.612Z,1.73
2023-06-12T11:33:17.884Z,1.45
2023-06-12T11:35:50.374Z,1.63
2023-06-12T11:40:54.653Z,1.80
2023-06-12T11:43:24.563Z,1.38
2023-06-12T11:45:54.110Z,1.70
2023-06-12T11:50:53.703Z,1.50
2023-06-12T11:53:24.326Z,1.90
2023-06-12T12:03:41.970Z,1.90
2023-06-12T12:06:09.222Z,1.80
2023-06-12T12:08:36.847Z,1.48
2023-06-12T12:11:34.166Z,1.63
2023-06-12T12:14:03.530Z,1.50
2023-06-12T12:16:39.917Z,1.80
2023-06-12T12:19:20.945Z,1.50
2023-06-12T12:21:48.407Z,2.05
2023-06-12T12:24:15.637Z,1.50
2023-06-12T12:26:43.363Z,2.67
2023-06-12T12:29:11.811Z,1.60
2023-06-12T12:31:39.088Z,1.42
2023-06-12T12:34:06.597Z,1.55
2023-06-12T12:36:33.768Z,1.70
2023-06-12T12:39:01.061Z,1.58
2023-06-12T12:41:28.743Z,1.42
2023-06-12T12:43:56.100Z,1.63
2023-06-12T12:46:26.439Z,1.80
2023-06-12T12:48:53.844Z,1.58
2023-06-12T12:51:21.259Z,1.65
2023-06-12T12:53:48.467Z,5.90
2023-06-12T12:56:15.700Z,1.77
2023-06-12T12:58:44.068Z,2.03
2023-06-12T13:01:11.325Z,1.75
2023-06-12T13:03:39.898Z,1.50
2023-06-12T13:06:09.234Z,1.65
2023-06-12T13:08:38.202Z,2.13
2023-06-12T13:11:05.454Z,2.10
2023-06-12T13:13:34.044Z,1.70
2023-06-12T13:16:02.156Z,1.50
2023-06-12T13:18:29.487Z,1.50
2023-06-12T13:20:56.525Z,1.90
2023-06-12T13:23:23.751Z,1.70
2023-06-12T13:25:52.152Z,1.60
2023-06-12T13:28:19.402Z,2.28
2023-06-12T13:30:46.767Z,1.77
2023-06-12T13:33:14.544Z,1.75
2023-06-12T13:35:41.690Z,1.90
2023-06-12T13:38:08.837Z,1.70
2023-06-12T13:40:36.030Z,1.73
2023-06-12T13:43:03.451Z,1.50
2023-06-12T13:45:32.290Z,1.75
2023-06-12T13:48:04.422Z,1.70
2023-06-12T13:50:31.980Z,1.73
2023-06-12T13:52:59.113Z,1.60
2023-06-12T13:55:26.854Z,1.75
2023-06-12T13:57:56.518Z,1.98
2023-06-12T14:00:24.649Z,1.70
2023-06-12T14:02:53.203Z,1.60
2023-06-12T14:05:21.079Z,1.80
2023-06-12T14:07:49.283Z,1.55
2023-06-12T14:10:20.423Z,1.50
2023-06-12T14:12:48.026Z,1.70
2023-06-12T14:15:15.215Z,1.60
2023-06-12T14:17:42.598Z,1.92
2023-06-12T14:20:10.612Z,1.50
2023-06-12T14:22:38.096Z,1.75
2023-06-12T14:25:05.720Z,1.73
2023-06-12T14:27:34.771Z,1.52
2023-06-12T14:30:02.096Z,1.95
2023-06-12T14:32:29.400Z,1.80
2023-06-12T14:34:56.655Z,1.50
2023-06-12T14:37:23.914Z,1.55
2023-06-12T14:39:51.202Z,1.75
2023-06-12T14:42:18.409Z,1.63
2023-06-12T14:44:45.636Z,1.60
2023-06-12T14:47:13.716Z,1.90
2023-06-12T14:49:40.897Z,1.65
2023-06-12T14:52:20.171Z,1.73
2023-06-12T14:54:51.058Z,1.73
2023-06-12T14:57:18.454Z,1.70
2023-06-12T14:59:45.524Z,1.83
2023-06-12T15:02:12.635Z,1.52
2023-06-12T15:04:40.760Z,1.70
2023-06-12T15:07:07.901Z,1.42
2023-06-12T15:09:35.129Z,1.58
2023-06-12T15:12:02.294Z,1.90
2023-06-12T15:14:29.495Z,1.70
2023-06-12T15:16:56.912Z,1.60
2023-06-12T15:19:25.303Z,2.10
2023-06-12T15:21:52.483Z,1.90
2023-06-12T15:24:19.941Z,2.00
2023-06-12T15:26:47.152Z,1.80
2023-06-12T15:29:14.537Z,1.63
2023-06-12T15:31:41.605Z,1.83
2023-06-12T15:34:08.920Z,1.50
2023-06-12T15:36:36.775Z,1.63
2023-06-12T15:39:05.187Z,5.43
2023-06-12T15:41:32.300Z,2.15
2023-06-12T15:43:59.449Z,1.70
2023-06-12T15:46:26.833Z,1.85
2023-06-12T15:48:53.968Z,1.77
2023-06-12T15:51:21.060Z,1.58
2023-06-12T15:53:48.200Z,1.75
2023-06-12T15:56:15.891Z,1.75
2023-06-12T15:58:45.259Z,1.67
2023-06-12T16:01:12.551Z,1.63
2023-06-12T16:03:39.886Z,1.55
2023-06-12T16:06:07.370Z,1.70
2023-06-12T16:08:34.549Z,2.00
2023-06-12T16:11:02.159Z,1.60
2023-06-12T16:13:29.166Z,1.70
2023-06-12T16:15:56.419Z,1.88
2023-06-12T16:18:23.600Z,1.50
2023-06-12T16:20:50.780Z,1.75
2023-06-12T16:23:18.946Z,1.73
2023-06-12T16:25:46.411Z,1.60
2023-06-12T16:28:13.650Z,1.50
2023-06-12T16:30:40.838Z,1.67
2023-06-12T16:33:08.091Z,1.70
2023-06-12T16:35:35.376Z,1.50
2023-06-12T16:38:02.765Z,1.48
2023-06-12T16:40:29.998Z,1.70
2023-06-12T16:42:58.190Z,1.50
2023-06-12T16:45:25.722Z,1.65
2023-06-12T16:47:53.107Z,1.60
2023-06-12T16:50:21.150Z,2.22
2023-06-12T16:52:48.389Z,1.65
2023-06-12T16:55:16.264Z,1.50
2023-06-12T16:57:44.545Z,1.92
2023-06-12T17:00:13.032Z,1.50
2023-06-12T17:02:40.378Z,1.73
2023-06-12T17:05:08.542Z,1.70
2023-06-12T17:07:35.737Z,1.55
2023-06-12T17:10:03.218Z,1.80
2023-06-12T17:12:30.593Z,1.60
2023-06-12T17:14:57.892Z,1.60
2023-06-12T17:17:25.519Z,1.80
2023-06-12T17:19:52.856Z,1.70
2023-06-12T17:22:20.034Z,1.77
2023-06-12T17:24:47.464Z,1.50
2023-06-12T17:27:14.781Z,1.48
2023-06-12T17:29:42.172Z,1.38
2023-06-12T17:32:09.667Z,1.48
2023-06-12T17:34:37.982Z,1.67
2023-06-12T17:37:05.873Z,1.67
2023-06-12T17:39:33.017Z,1.63
2023-06-12T17:42:00.260Z,1.38
2023-06-12T17:44:28.532Z,1.77
2023-06-12T17:46:55.925Z,1.55
2023-06-12T17:49:23.239Z,1.70
2023-06-12T17:51:50.761Z,1.60
2023-06-12T17:54:18.131Z,1.48
2023-06-12T17:56:47.419Z,1.75
2023-06-12T17:59:14.779Z,1.50
2023-06-12T18:01:42.070Z,1.70
2023-06-12T18:04:09.470Z,1.60
2023-06-12T18:06:37.777Z,1.52
2023-06-12T18:09:06.138Z,1.77
2023-06-12T18:11:33.354Z,1.75
2023-06-12T18:14:00.814Z,1.42
2023-06-12T18:16:28.223Z,1.60
2023-06-12T18:18:55.619Z,1.75
2023-06-12T18:21:23.013Z,2.00
2023-06-12T18:23:51.472Z,1.60
2023-06-12T18:26:19.124Z,1.77
2023-06-12T18:28:46.461Z,2.10
2023-06-12T18:31:13.608Z,2.10
2023-06-12T18:33:40.755Z,2.20
2023-06-12T18:36:08.139Z,2.25
2023-06-12T18:38:35.510Z,2.38
2023-06-12T18:41:02.927Z,2.30
2023-06-12T18:43:30.081Z,2.40
2023-06-12T18:45:57.227Z,2.75
2023-06-12T18:48:24.392Z,2.35
2023-06-12T18:50:51.681Z,2.28
2023-06-12T18:53:18.948Z,2.28
2023-06-12T18:55:46.333Z,2.20
2023-06-12T18:58:13.702Z,2.00
2023-06-12T19:00:40.969Z,2.20
2023-06-12T19:03:09.010Z,2.30
2023-06-12T19:05:36.355Z,2.15
2023-06-12T19:08:03.464Z,2.20
2023-06-12T19:10:30.557Z,2.00
2023-06-12T19:12:57.712Z,2.10
2023-06-12T19:15:24.951Z,1.70
2023-06-12T19:17:54.717Z,2.20
2023-06-12T19:20:22.056Z,2.00
2023-06-12T19:22:49.338Z,2.25
2023-06-12T19:25:17.204Z,1.80
2023-06-12T19:27:44.717Z,2.22
2023-06-12T19:30:14.412Z,2.50
2023-06-12T19:32:45.602Z,2.08
2023-06-12T19:35:13.996Z,2.00
2023-06-12T19:37:41.491Z,2.30
2023-06-12T19:40:10.217Z,2.20
2023-06-12T19:42:37.507Z,2.20
2023-06-12T19:45:08.527Z,2.03
2023-06-12T19:47:37.823Z,2.20
2023-06-12T19:50:06.090Z,1.70
2023-06-12T19:52:34.448Z,2.20
2023-06-12T19:55:01.596Z,2.13
2023-06-12T19:57:28.856Z,2.10
2023-06-12T19:59:56.010Z,1.85
2023-06-12T20:02:23.250Z,2.30
2023-06-12T20:04:50.453Z,2.25
2023-06-12T20:07:17.751Z,2.00
2023-06-12T20:09:44.851Z,2.15
2023-06-12T20:12:12.779Z,2.00
2023-06-12T20:14:39.882Z,2.30
2023-06-12T20:17:07.103Z,2.10
2023-06-12T20:19:35.114Z,2.35
2023-06-12T20:22:02.437Z,2.20
2023-06-12T20:24:35.240Z,2.28
2023-06-12T20:27:02.972Z,2.47
2023-06-12T20:29:30.134Z,2.33
2023-06-12T20:31:57.428Z,1.98
2023-06-12T20:34:24.649Z,2.22
2023-06-12T20:36:51.942Z,2.40
2023-06-12T20:39:19.114Z,2.35
2023-06-12T20:41:46.203Z,2.40
2023-06-12T20:44:13.380Z,2.83
2023-06-12T20:46:40.582Z,2.20
2023-06-12T20:49:07.942Z,2.15
2023-06-12T20:51:35.372Z,2.10
2023-06-12T20:54:02.590Z,2.25
2023-06-12T20:56:30.800Z,2.00
2023-06-12T20:58:58.130Z,2.05
2023-06-12T21:01:25.795Z,2.42
2023-06-12T21:03:54.008Z,2.20
2023-06-12T21:06:22.505Z,2.45
2023-06-12T21:08:57.002Z,1.73
2023-06-12T21:11:37.807Z,2.40
2023-06-12T21:14:13.653Z,2.20
2023-06-12T21:16:41.168Z,2.28
2023-06-12T21:19:08.370Z,2.30
2023-06-12T21:21:35.896Z,2.60
2023-06-12T21:24:04.140Z,2.70
2023-06-12T21:26:31.482Z,2.47
2023-06-12T21:28:59.249Z,2.60
2023-06-12T21:31:32.469Z,2.60
2023-06-12T21:34:02.952Z,2.78
2023-06-12T21:36:32.743Z,2.33
2023-06-12T21:39:00.331Z,2.55
2023-06-12T21:41:27.964Z,2.38
2023-06-12T21:43:55.500Z,2.65
2023-06-12T21:46:23.308Z,2.80
2023-06-12T21:48:51.104Z,2.63
2023-06-12T21:51:18.385Z,2.53
2023-06-12T21:53:45.869Z,2.40
2023-06-12T21:56:13.172Z,2.35
2023-06-12T21:58:40.427Z,2.45
2023-06-12T22:01:07.790Z,2.50
2023-06-12T22:03:35.152Z,3.10
2023-06-12T22:06:02.620Z,2.72
2023-06-12T22:08:29.895Z,2.75
2023-06-12T22:10:57.200Z,2.78
2023-06-12T22:13:24.503Z,3.42
2023-06-12T22:15:52.528Z,3.15
2023-06-12T22:18:19.814Z,3.00
2023-06-12T22:20:47.175Z,2.70
2023-06-12T22:23:15.088Z,2.63
2023-06-12T22:25:42.940Z,2.53
2023-06-12T22:28:10.399Z,2.67
2023-06-12T22:30:56.267Z,2.90
2023-06-12T22:33:24.927Z,2.20
2023-06-12T22:35:52.206Z,2.65
2023-06-12T22:38:19.599Z,2.50
2023-06-12T22:40:46.843Z,2.65
2023-06-12T22:43:16.462Z,3.20
2023-06-12T22:45:44.607Z,2.50
2023-06-12T22:48:12.115Z,2.30
2023-06-12T22:50:39.795Z,2.58
2023-06-12T22:53:14.531Z,2.28
2023-06-12T22:55:42.849Z,2.40
2023-06-12T22:58:10.534Z,2.13
2023-06-12T23:00:37.862Z,2.15
2023-06-12T23:03:05.108Z,2.20
2023-06-12T23:05:33.072Z,2.00
2023-06-12T23:08:00.467Z,2.35
2023-06-12T23:10:27.841Z,2.10
2023-06-12T23:12:57.498Z,1.80
2023-06-12T23:15:24.920Z,1.83
2023-06-12T23:17:52.472Z,2.00
2023-06-12T23:20:21.054Z,2.03
2023-06-12T23:22:54.773Z,1.80
2023-06-12T23:25:23.491Z,1.60
2023-06-12T23:27:58.390Z,1.83
2023-06-12T23:30:27.021Z,2.33
2023-06-12T23:32:57.507Z,1.98
2023-06-12T23:35:24.899Z,2.00
2023-06-12T23:37:52.451Z,1.88
2023-06-12T23:40:19.804Z,1.73
2023-06-12T23:42:48.217Z,1.90
2023-06-12T23:45:16.128Z,1.50
2023-06-12T23:47:43.465Z,1.90
2023-06-12T23:50:11.268Z,1.80
2023-06-12T23:52:38.660Z,1.60
2023-06-12T23:55:06.595Z,2.67
2023-06-12T23:57:33.878Z,1.95
